Taylor Springs, Illinois
Current Conditions -  °F | °C
As of 1:55 AM on Wednesday 26 Nov 2014 (Local Time) from K3LF Reporting Station
Clear Clear  
Wind Chill: 17°   Ceiling: Unl
Heat Index: 24°   Visibility: 7mi
Dew Point: 22°   Wind: 6mph
Humidity: 91%   Direction: 130°SE
Pressure: 30.12"   Gusts: NA
Location:  39.13°N, 89.49°W
Report Text: K3LF 260755Z AUTO 13005KT 7SM CLR M04/M05 A3012 RMK AO2 T10421055
Loading
Personal Weather Stations






























Interactive Weather Map New forecast layout! Learn more

10-Day Weather Forecast

Advertisements
Track Severe Weather on mobile